sensor_id;sensor_type;location;lat;lon;timestamp;pressure;altitude;pressure_sealevel;temperature;humidity
21588;BME280;10956;48.878;13.316;2023-03-20T00:00:22;94269.38;;;6.77;100.00
21588;BME280;10956;48.878;13.316;2023-03-20T00:02:49;94271.22;;;6.77;100.00
21588;BME280;10956;48.878;13.316;2023-03-20T00:05:19;94276.22;;;6.78;100.00
21588;BME280;10956;48.878;13.316;2023-03-20T00:07:46;94278.28;;;6.76;100.00
21588;BME280;10956;48.878;13.316;2023-03-20T00:10:14;94275.09;;;6.74;100.00
21588;BME280;10956;48.878;13.316;2023-03-20T00:12:39;94275.34;;;6.73;100.00
21588;BME280;10956;48.878;13.316;2023-03-20T00:15:37;94285.50;;;6.69;100.00
21588;BME280;10956;48.878;13.316;2023-03-20T00:18:02;94279.72;;;6.67;100.00
21588;BME280;10956;48.878;13.316;2023-03-20T00:20:28;94286.53;;;6.68;100.00
21588;BME280;10956;48.878;13.316;2023-03-20T00:22:53;94280.19;;;6.64;100.00
21588;BME280;10956;48.878;13.316;2023-03-20T00:25:22;94280.66;;;6.61;100.00
21588;BME280;10956;48.878;13.316;2023-03-20T00:27:49;94286.38;;;6.58;100.00
21588;BME280;10956;48.878;13.316;2023-03-20T00:30:33;94280.03;;;6.54;100.00
21588;BME280;10956;48.878;13.316;2023-03-20T00:32:58;94280.81;;;6.55;100.00
21588;BME280;10956;48.878;13.316;2023-03-20T00:35:29;94279.72;;;6.51;100.00
21588;BME280;10956;48.878;13.316;2023-03-20T00:37:56;94274.16;;;6.47;100.00
21588;BME280;10956;48.878;13.316;2023-03-20T00:40:26;94278.28;;;6.43;100.00
21588;BME280;10956;48.878;13.316;2023-03-20T00:43:00;94274.06;;;6.42;100.00
21588;BME280;10956;48.878;13.316;2023-03-20T00:45:27;94284.47;;;6.37;100.00
21588;BME280;10956;48.878;13.316;2023-03-20T00:47:53;94278.69;;;6.35;100.00
21588;BME280;10956;48.878;13.316;2023-03-20T00:50:26;94277.66;;;6.36;100.00
21588;BME280;10956;48.878;13.316;2023-03-20T00:52:54;94274.00;;;6.37;100.00
21588;BME280;10956;48.878;13.316;2023-03-20T00:55:23;94277.97;;;6.39;100.00
21588;BME280;10956;48.878;13.316;2023-03-20T00:57:51;94271.94;;;6.39;100.00
21588;BME280;10956;48.878;13.316;2023-03-20T01:00:37;94274.00;;;6.37;100.00
21588;BME280;10956;48.878;13.316;2023-03-20T01:05:36;94278.13;;;6.33;100.00
21588;BME280;10956;48.878;13.316;2023-03-20T01:08:01;94271.28;;;6.32;100.00
21588;BME280;10956;48.878;13.316;2023-03-20T01:10:30;94267.66;;;6.33;100.00
21588;BME280;10956;48.878;13.316;2023-03-20T01:12:59;94276.53;;;6.32;100.00
21588;BME280;10956;48.878;13.316;2023-03-20T01:15:30;94274.47;;;6.34;100.00
21588;BME280;10956;48.878;13.316;2023-03-20T01:17:56;94276.06;;;6.35;100.00
21588;BME280;10956;48.878;13.316;2023-03-20T01:20:26;94274.00;;;6.37;100.00
21588;BME280;10956;48.878;13.316;2023-03-20T01:22:52;94277.16;;;6.39;100.00
21588;BME280;10956;48.878;13.316;2023-03-20T01:25:19;94277.66;;;6.36;100.00
21588;BME280;10956;48.878;13.316;2023-03-20T01:27:50;94272.97;;;6.38;100.00
21588;BME280;10956;48.878;13.316;2023-03-20T01:30:23;94274.78;;;6.37;100.00
21588;BME280;10956;48.878;13.316;2023-03-20T01:32:49;94274.78;;;6.37;100.00
21588;BME280;10956;48.878;13.316;2023-03-20T01:35:20;94272.41;;;6.36;100.00
21588;BME280;10956;48.878;13.316;2023-03-20T01:37:46;94276.06;;;6.35;100.00
21588;BME280;10956;48.878;13.316;2023-03-20T01:40:32;94272.25;;;6.26;100.00
21588;BME280;10956;48.878;13.316;2023-03-20T01:43:00;94271.59;;;6.19;100.00
21588;BME280;10956;48.878;13.316;2023-03-20T01:45:33;94277.31;;;6.15;100.00
21588;BME280;10956;48.878;13.316;2023-03-20T01:48:16;94278.91;;;6.17;100.00
21588;BME280;10956;48.878;13.316;2023-03-20T01:50:42;94280.47;;;6.18;100.00
21588;BME280;10956;48.878;13.316;2023-03-20T01:53:15;94271.59;;;6.19;100.00
21588;BME280;10956;48.878;13.316;2023-03-20T01:55:42;94277.06;;;6.17;100.00
21588;BME280;10956;48.878;13.316;2023-03-20T01:58:15;94270.00;;;6.18;100.00
21588;BME280;10956;48.878;13.316;2023-03-20T02:00:41;94274.94;;;6.14;100.00
21588;BME280;10956;48.878;13.316;2023-03-20T02:03:07;94274.59;;;6.10;100.00
21588;BME280;10956;48.878;13.316;2023-03-20T02:05:34;94271.44;;;6.08;100.00
21588;BME280;10956;48.878;13.316;2023-03-20T02:08:15;94274.13;;;6.13;100.00
21588;BME280;10956;48.878;13.316;2023-03-20T02:10:44;94273.03;;;6.09;100.00
21588;BME280;10956;48.878;13.316;2023-03-20T02:13:10;94265.09;;;6.04;100.00
21588;BME280;10956;48.878;13.316;2023-03-20T02:15:53;94272.50;;;5.96;100.00
21588;BME280;10956;48.878;13.316;2023-03-20T02:18:19;94262.53;;;5.93;100.00
21588;BME280;10956;48.878;13.316;2023-03-20T02:40:23;94272.38;;;6.02;100.00
21588;BME280;10956;48.878;13.316;2023-03-20T02:48:29;94262.25;;;6.23;100.00
21588;BME280;10956;48.878;13.316;2023-03-20T02:53:54;94262.88;;;6.30;100.00
21588;BME280;10956;48.878;13.316;2023-03-20T02:58:59;94265.19;;;6.43;100.00
21588;BME280;10956;48.878;13.316;2023-03-20T03:01:33;94271.06;;;6.50;100.00
21588;BME280;10956;48.878;13.316;2023-03-20T03:04:03;94263.53;;;6.54;100.00
21588;BME280;10956;48.878;13.316;2023-03-20T03:06:35;94275.13;;;6.58;100.00
21588;BME280;10956;48.878;13.316;2023-03-20T03:09:06;94266.53;;;6.62;100.00
21588;BME280;10956;48.878;13.316;2023-03-20T03:11:40;94264.25;;;6.66;100.00
21588;BME280;10956;48.878;13.316;2023-03-20T03:14:13;94268.75;;;6.70;100.00
21588;BME280;10956;48.878;13.316;2023-03-20T03:16:42;94268.28;;;6.73;100.00
21588;BME280;10956;48.878;13.316;2023-03-20T03:19:20;94276.22;;;6.78;100.00
21588;BME280;10956;48.878;13.316;2023-03-20T03:21:48;94278.91;;;6.84;100.00
21588;BME280;10956;48.878;13.316;2023-03-20T03:24:25;94279.69;;;6.84;100.00
21588;BME280;10956;48.878;13.316;2023-03-20T03:26:52;94285.25;;;6.88;100.00
21588;BME280;10956;48.878;13.316;2023-03-20T03:29:17;94286.59;;;6.90;100.00
21588;BME280;10956;48.878;13.316;2023-03-20T03:31:44;94293.19;;;6.93;100.00
21588;BME280;10956;48.878;13.316;2023-03-20T03:34:15;94286.44;;;6.97;100.00
21588;BME280;10956;48.878;13.316;2023-03-20T03:42:01;94293.00;;;6.99;100.00
21588;BME280;10956;48.878;13.316;2023-03-20T03:44:48;94295.09;;;6.97;100.00
21588;BME280;10956;48.878;13.316;2023-03-20T03:47:40;94293.97;;;6.93;100.00
21588;BME280;10956;48.878;13.316;2023-03-20T03:50:20;94292.16;;;6.94;100.00
21588;BME280;10956;48.878;13.316;2023-03-20T03:52:49;94297.94;;;6.96;100.00
21588;BME280;10956;48.878;13.316;2023-03-20T03:55:29;94297.47;;;6.99;100.00
21588;BME280;10956;48.878;13.316;2023-03-20T03:58:10;94290.94;;;7.01;100.00
21588;BME280;10956;48.878;13.316;2023-03-20T04:00:39;94295.41;;;7.01;100.00
21588;BME280;10956;48.878;13.316;2023-03-20T04:03:06;94295.47;;;7.06;100.00
21588;BME280;10956;48.878;13.316;2023-03-20T04:05:35;94298.88;;;7.06;100.00
21588;BME280;10956;48.878;13.316;2023-03-20T04:08:02;94302.28;;;7.07;100.00
21588;BME280;10956;48.878;13.316;2023-03-20T04:10:28;94296.50;;;7.05;100.00
21588;BME280;10956;48.878;13.316;2023-03-20T04:12:54;94294.44;;;7.07;100.00
21588;BME280;10956;48.878;13.316;2023-03-20T04:15:19;94296.03;;;7.08;100.00
21588;BME280;10956;48.878;13.316;2023-03-20T04:17:46;94310.47;;;7.10;100.00
21588;BME280;10956;48.878;13.316;2023-03-20T04:20:12;94310.78;;;7.14;100.00
21588;BME280;10956;48.878;13.316;2023-03-20T04:22:38;94311.88;;;7.18;100.00
21588;BME280;10956;48.878;13.316;2023-03-20T04:25:05;94310.59;;;7.21;100.00
21588;BME280;10956;48.878;13.316;2023-03-20T04:27:31;94307.44;;;7.19;100.00
21588;BME280;10956;48.878;13.316;2023-03-20T04:29:56;94309.34;;;7.23;100.00
21588;BME280;10956;48.878;13.316;2023-03-20T04:32:22;94310.44;;;7.27;100.00
21588;BME280;10956;48.878;13.316;2023-03-20T04:34:47;94312.81;;;7.29;100.00
21588;BME280;10956;48.878;13.316;2023-03-20T04:37:13;94306.28;;;7.31;100.00
21588;BME280;10956;48.878;13.316;2023-03-20T04:39:38;94307.41;;;7.35;100.00
21588;BME280;10956;48.878;13.316;2023-03-20T04:42:06;94310.81;;;7.36;100.00
21588;BME280;10956;48.878;13.316;2023-03-20T04:44:32;94307.69;;;7.39;100.00
21588;BME280;10956;48.878;13.316;2023-03-20T04:46:58;94310.09;;;7.40;100.00
21588;BME280;10956;48.878;13.316;2023-03-20T04:49:23;94313.75;;;7.39;100.00
21588;BME280;10956;48.878;13.316;2023-03-20T04:51:48;94310.50;;;7.32;100.00
21588;BME280;10956;48.878;13.316;2023-03-20T04:54:14;94315.19;;;7.30;100.00
21588;BME280;10956;48.878;13.316;2023-03-20T04:56:39;94314.88;;;7.27;100.00
21588;BME280;10956;48.878;13.316;2023-03-20T04:59:05;94319.66;;;7.13;100.00
21588;BME280;10956;48.878;13.316;2023-03-20T05:01:30;94310.00;;;6.97;100.00
21588;BME280;10956;48.878;13.316;2023-03-20T05:03:56;94326.06;;;6.84;100.00
21588;BME280;10956;48.878;13.316;2023-03-20T05:06:29;94325.09;;;6.73;100.00
21588;BME280;10956;48.878;13.316;2023-03-20T05:08:56;94325.25;;;6.66;100.00
21588;BME280;10956;48.878;13.316;2023-03-20T05:11:23;94323.34;;;6.62;100.00
21588;BME280;10956;48.878;13.316;2023-03-20T05:13:49;94329.38;;;6.62;100.00
21588;BME280;10956;48.878;13.316;2023-03-20T05:16:15;94338.28;;;6.61;100.00
21588;BME280;10956;48.878;13.316;2023-03-20T05:18:40;94331.75;;;6.64;100.00
21588;BME280;10956;48.878;13.316;2023-03-20T05:21:06;94334.16;;;6.65;100.00
21588;BME280;10956;48.878;13.316;2023-03-20T05:23:32;94336.28;;;6.68;100.00
21588;BME280;10956;48.878;13.316;2023-03-20T05:25:57;94340.50;;;6.69;100.00
21588;BME280;10956;48.878;13.316;2023-03-20T05:28:22;94341.53;;;6.68;100.00
21588;BME280;10956;48.878;13.316;2023-03-20T05:30:48;94342.63;;;6.72;100.00
21588;BME280;10956;48.878;13.316;2023-03-20T05:33:13;94344.00;;;6.75;100.00
21588;BME280;10956;48.878;13.316;2023-03-20T05:35:39;94344.31;;;6.78;100.00
21588;BME280;10956;48.878;13.316;2023-03-20T05:38:05;94346.44;;;6.82;100.00
21588;BME280;10956;48.878;13.316;2023-03-20T05:40:30;94342.88;;;6.88;100.00
21588;BME280;10956;48.878;13.316;2023-03-20T05:42:55;94351.94;;;6.97;100.00
21588;BME280;10956;48.878;13.316;2023-03-20T05:45:21;94348.84;;;7.00;100.00
21588;BME280;10956;48.878;13.316;2023-03-20T05:47:47;94355.19;;;7.04;100.00
21588;BME280;10956;48.878;13.316;2023-03-20T05:50:12;94350.19;;;7.02;100.00
21588;BME280;10956;48.878;13.316;2023-03-20T05:52:38;94343.66;;;7.05;100.00
21588;BME280;10956;48.878;13.316;2023-03-20T05:55:04;94359.06;;;7.01;100.00
21588;BME280;10956;48.878;13.316;2023-03-20T05:57:30;94357.81;;;7.04;100.00
21588;BME280;10956;48.878;13.316;2023-03-20T05:59:55;94357.31;;;7.07;100.00
21588;BME280;10956;48.878;13.316;2023-03-20T06:02:21;94361.78;;;7.06;100.00
21588;BME280;10956;48.878;13.316;2023-03-20T06:04:46;94356.53;;;7.06;100.00
21588;BME280;10956;48.878;13.316;2023-03-20T06:07:12;94359.69;;;7.08;100.00
21588;BME280;10956;48.878;13.316;2023-03-20T06:09:37;94357.63;;;7.10;100.00
21588;BME280;10956;48.878;13.316;2023-03-20T06:12:03;94364.69;;;7.10;100.00
21588;BME280;10956;48.878;13.316;2023-03-20T06:14:28;94363.66;;;7.11;100.00
21588;BME280;10956;48.878;13.316;2023-03-20T06:16:54;94372.56;;;7.10;100.00
21588;BME280;10956;48.878;13.316;2023-03-20T06:19:21;94370.97;;;7.09;100.00
21588;BME280;10956;48.878;13.316;2023-03-20T06:21:47;94384.63;;;7.11;100.00
21588;BME280;10956;48.878;13.316;2023-03-20T06:24:13;94387.81;;;7.13;100.00
21588;BME280;10956;48.878;13.316;2023-03-20T06:26:38;94386.22;;;7.12;100.00
21588;BME280;10956;48.878;13.316;2023-03-20T06:29:03;94388.06;;;7.11;100.00
21588;BME280;10956;48.878;13.316;2023-03-20T06:31:29;94395.13;;;7.11;100.00
21588;BME280;10956;48.878;13.316;2023-03-20T06:33:54;94396.94;;;7.10;100.00
21588;BME280;10956;48.878;13.316;2023-03-20T06:36:21;94399.88;;;7.14;100.00
21588;BME280;10956;48.878;13.316;2023-03-20T06:38:46;94392.66;;;7.21;100.00
21588;BME280;10956;48.878;13.316;2023-03-20T06:41:12;94396.47;;;7.30;100.00
21588;BME280;10956;48.878;13.316;2023-03-20T06:43:37;94393.75;;;7.42;100.00
21588;BME280;10956;48.878;13.316;2023-03-20T06:46:04;94404.63;;;7.51;100.00
21588;BME280;10956;48.878;13.316;2023-03-20T06:48:30;94385.03;;;7.58;100.00
21588;BME280;10956;48.878;13.316;2023-03-20T06:50:55;94398.53;;;7.67;100.00
21588;BME280;10956;48.878;13.316;2023-03-20T06:53:21;94395.25;;;7.76;100.00
21588;BME280;10956;48.878;13.316;2023-03-20T06:55:48;94399.34;;;7.89;100.00
21588;BME280;10956;48.878;13.316;2023-03-20T06:58:13;94400.50;;;7.98;100.00
21588;BME280;10956;48.878;13.316;2023-03-20T07:00:39;94409.97;;;7.99;100.00
21588;BME280;10956;48.878;13.316;2023-03-20T07:03:04;94411.00;;;7.98;100.00
21588;BME280;10956;48.878;13.316;2023-03-20T07:05:30;94413.88;;;7.97;100.00
21588;BME280;10956;48.878;13.316;2023-03-20T07:07:56;94414.66;;;7.97;100.00
21588;BME280;10956;48.878;13.316;2023-03-20T07:10:22;94411.00;;;7.98;100.00
21588;BME280;10956;48.878;13.316;2023-03-20T07:12:48;94421.56;;;8.03;100.00
21588;BME280;10956;48.878;13.316;2023-03-20T07:15:15;94411.13;;;8.08;100.00
21588;BME280;10956;48.878;13.316;2023-03-20T07:17:41;94416.38;;;8.08;100.00
21588;BME280;10956;48.878;13.316;2023-03-20T07:20:07;94410.34;;;8.08;100.00
21588;BME280;10956;48.878;13.316;2023-03-20T07:22:32;94417.19;;;8.09;100.00
21588;BME280;10956;48.878;13.316;2023-03-20T07:24:58;94413.22;;;8.06;100.00
21588;BME280;10956;48.878;13.316;2023-03-20T07:27:24;94420.03;;;8.07;100.00
21588;BME280;10956;48.878;13.316;2023-03-20T07:29:50;94414.31;;;8.10;100.00
21588;BME280;10956;48.878;13.316;2023-03-20T07:32:16;94406.31;;;8.00;100.00
21588;BME280;10956;48.878;13.316;2023-03-20T07:34:41;94419.63;;;7.94;100.00
21588;BME280;10956;48.878;13.316;2023-03-20T07:37:07;94415.41;;;7.93;100.00
21588;BME280;10956;48.878;13.316;2023-03-20T07:39:32;94429.31;;;7.93;100.00
21588;BME280;10956;48.878;13.316;2023-03-20T07:41:58;94419.13;;;7.97;100.00
21588;BME280;10956;48.878;13.316;2023-03-20T07:44:23;94426.28;;;8.01;100.00
21588;BME280;10956;48.878;13.316;2023-03-20T07:46:49;94428.91;;;8.01;100.00
21588;BME280;10956;48.878;13.316;2023-03-20T07:49:17;94420.53;;;8.04;100.00
21588;BME280;10956;48.878;13.316;2023-03-20T07:51:44;94421.63;;;8.08;100.00
21588;BME280;10956;48.878;13.316;2023-03-20T07:54:09;94419.63;;;8.16;100.00
21588;BME280;10956;48.878;13.316;2023-03-20T07:56:35;94420.78;;;8.25;100.00
21588;BME280;10956;48.878;13.316;2023-03-20T07:59:00;94421.38;;;8.32;100.00
21588;BME280;10956;48.878;13.316;2023-03-20T08:01:26;94418.06;;;8.36;100.00
21588;BME280;10956;48.878;13.316;2023-03-20T08:03:51;94426.28;;;8.45;100.00
21588;BME280;10956;48.878;13.316;2023-03-20T08:06:16;94433.13;;;8.46;100.00
21588;BME280;10956;48.878;13.316;2023-03-20T08:08:42;94437.88;;;8.49;100.00
21588;BME280;10956;48.878;13.316;2023-03-20T08:11:09;94445.53;;;8.51;100.00
21588;BME280;10956;48.878;13.316;2023-03-20T08:13:35;94442.66;;;8.52;100.00
21588;BME280;10956;48.878;13.316;2023-03-20T08:16:00;94449.97;;;8.50;100.00
21588;BME280;10956;48.878;13.316;2023-03-20T08:18:25;94448.50;;;8.59;100.00
21588;BME280;10956;48.878;13.316;2023-03-20T08:20:51;94447.41;;;8.82;100.00
21588;BME280;10956;48.878;13.316;2023-03-20T08:23:17;94448.91;;;9.00;100.00
21588;BME280;10956;48.878;13.316;2023-03-20T08:25:47;94456.41;;;9.18;100.00
21588;BME280;10956;48.878;13.316;2023-03-20T08:28:12;94444.97;;;9.34;100.00
21588;BME280;10956;48.878;13.316;2023-03-20T08:30:38;94444.09;;;9.56;100.00
21588;BME280;10956;48.878;13.316;2023-03-20T08:33:03;94442.72;;;9.90;100.00
21588;BME280;10956;48.878;13.316;2023-03-20T08:35:29;94451.03;;;10.19;100.00
21588;BME280;10956;48.878;13.316;2023-03-20T08:37:54;94448.25;;;10.41;100.00
21588;BME280;10956;48.878;13.316;2023-03-20T08:40:20;94457.28;;;10.60;100.00
21588;BME280;10956;48.878;13.316;2023-03-20T08:42:45;94456.00;;;10.73;100.00
21588;BME280;10956;48.878;13.316;2023-03-20T08:45:11;94460.00;;;10.91;100.00
21588;BME280;10956;48.878;13.316;2023-03-20T08:47:36;94466.88;;;11.12;100.00
21588;BME280;10956;48.878;13.316;2023-03-20T08:50:02;94466.09;;;11.22;100.00
21588;BME280;10956;48.878;13.316;2023-03-20T08:52:27;94460.31;;;11.30;100.00
21588;BME280;10956;48.878;13.316;2023-03-20T08:54:53;94455.31;;;11.44;100.00
21588;BME280;10956;48.878;13.316;2023-03-20T08:57:18;94461.63;;;11.58;100.00
21588;BME280;10956;48.878;13.316;2023-03-20T08:59:43;94456.59;;;11.72;100.00
21588;BME280;10956;48.878;13.316;2023-03-20T09:02:10;94461.38;;;11.85;100.00
21588;BME280;10956;48.878;13.316;2023-03-20T09:04:36;94455.56;;;11.88;100.00
21588;BME280;10956;48.878;13.316;2023-03-20T09:07:01;94460.56;;;11.74;100.00
21588;BME280;10956;48.878;13.316;2023-03-20T09:09:28;94467.19;;;11.51;100.00
21588;BME280;10956;48.878;13.316;2023-03-20T09:11:56;94460.03;;;11.67;100.00
21588;BME280;10956;48.878;13.316;2023-03-20T09:14:23;94462.97;;;11.81;100.00
21588;BME280;10956;48.878;13.316;2023-03-20T09:16:49;94454.22;;;11.70;100.00
21588;BME280;10956;48.878;13.316;2023-03-20T09:19:15;94459.53;;;11.55;100.00
21588;BME280;10956;48.878;13.316;2023-03-20T09:21:41;94453.19;;;11.30;100.00
21588;BME280;10956;48.878;13.316;2023-03-20T09:24:06;94453.66;;;10.92;100.00
21588;BME280;10956;48.878;13.316;2023-03-20T09:26:32;94454.97;;;10.89;100.00
21588;BME280;10956;48.878;13.316;2023-03-20T09:28:57;94448.91;;;10.89;100.00
21588;BME280;10956;48.878;13.316;2023-03-20T09:31:23;94447.63;;;11.02;100.00
21588;BME280;10956;48.878;13.316;2023-03-20T09:33:48;94447.38;;;11.23;100.00
21588;BME280;10956;48.878;13.316;2023-03-20T09:36:14;94445.53;;;11.49;100.00
21588;BME280;10956;48.878;13.316;2023-03-20T09:38:40;94445.53;;;11.64;100.00
21588;BME280;10956;48.878;13.316;2023-03-20T09:41:13;94447.09;;;11.76;100.00
21588;BME280;10956;48.878;13.316;2023-03-20T09:44:15;94449.50;;;11.77;100.00
21588;BME280;10956;48.878;13.316;2023-03-20T09:52:04;94435.78;;;11.55;100.00
21588;BME280;10956;48.878;13.316;2023-03-20T09:54:38;94432.88;;;11.31;100.00
21588;BME280;10956;48.878;13.316;2023-03-20T09:57:05;94436.31;;;11.21;100.00
21588;BME280;10956;48.878;13.316;2023-03-20T09:59:37;94433.66;;;11.57;100.00
21588;BME280;10956;48.878;13.316;2023-03-20T10:02:13;94436.19;;;12.23;100.00
21588;BME280;10956;48.878;13.316;2023-03-20T10:04:41;94441.19;;;12.84;100.00
21588;BME280;10956;48.878;13.316;2023-03-20T10:07:09;94437.38;;;13.05;100.00
21588;BME280;10956;48.878;13.316;2023-03-20T10:09:37;94447.56;;;12.78;100.00
21588;BME280;10956;48.878;13.316;2023-03-20T10:12:32;94444.56;;;12.45;100.00
21588;BME280;10956;48.878;13.316;2023-03-20T10:18:42;94441.22;;;12.19;100.00
21588;BME280;10956;48.878;13.316;2023-03-20T10:23:48;94438.03;;;12.82;100.00
21588;BME280;10956;48.878;13.316;2023-03-20T10:26:18;94427.06;;;13.04;100.00
21588;BME280;10956;48.878;13.316;2023-03-20T10:28:59;94433.34;;;13.18;100.00
21588;BME280;10956;48.878;13.316;2023-03-20T10:31:46;94425.81;;;13.35;100.00
21588;BME280;10956;48.878;13.316;2023-03-20T10:40:02;94432.66;;;13.36;100.00
21588;BME280;10956;48.878;13.316;2023-03-20T10:42:35;94418.94;;;13.34;100.00
21588;BME280;10956;48.878;13.316;2023-03-20T10:45:06;94417.94;;;13.25;100.00
21588;BME280;10956;48.878;13.316;2023-03-20T10:47:35;94409.22;;;13.24;100.00
21588;BME280;10956;48.878;13.316;2023-03-20T10:50:10;94403.19;;;13.48;100.00
21588;BME280;10956;48.878;13.316;2023-03-20T10:52:41;94399.19;;;13.79;99.92
21588;BME280;10956;48.878;13.316;2023-03-20T10:55:11;94398.53;;;13.93;98.44
21588;BME280;10956;48.878;13.316;2023-03-20T10:57:43;94395.66;;;14.13;97.11
21588;BME280;10956;48.878;13.316;2023-03-20T11:00:18;94400.34;;;14.21;97.03
21588;BME280;10956;48.878;13.316;2023-03-20T11:02:45;94401.91;;;14.22;96.19
21588;BME280;10956;48.878;13.316;2023-03-20T11:05:27;94391.75;;;14.29;94.83
21588;BME280;10956;48.878;13.316;2023-03-20T11:08:05;94402.25;;;14.39;93.26
21588;BME280;10956;48.878;13.316;2023-03-20T11:10:34;94391.19;;;14.32;92.74
21588;BME280;10956;48.878;13.316;2023-03-20T11:13:32;94390.75;;;14.25;92.71
21588;BME280;10956;48.878;13.316;2023-03-20T11:18:40;94390.66;;;14.11;92.74
21588;BME280;10956;48.878;13.316;2023-03-20T11:21:09;94388.72;;;14.17;92.11
21588;BME280;10956;48.878;13.316;2023-03-20T11:23:38;94406.75;;;14.15;91.77
21588;BME280;10956;48.878;13.316;2023-03-20T11:26:05;94409.25;;;14.06;91.71
21588;BME280;10956;48.878;13.316;2023-03-20T11:28:35;94395.94;;;13.87;92.29
21588;BME280;10956;48.878;13.316;2023-03-20T11:33:49;94402.81;;;13.31;93.83
21588;BME280;10956;48.878;13.316;2023-03-20T11:36:22;94399.78;;;13.08;94.71
21588;BME280;10956;48.878;13.316;2023-03-20T11:38:49;94406.28;;;12.82;96.30
21588;BME280;10956;48.878;13.316;2023-03-20T11:41:26;94409.84;;;12.62;97.41
21588;BME280;10956;48.878;13.316;2023-03-20T11:43:52;94413.88;;;12.49;98.05
21588;BME280;10956;48.878;13.316;2023-03-20T11:46:20;94413.72;;;12.25;98.85
21588;BME280;10956;48.878;13.316;2023-03-20T11:49:00;94416.16;;;12.07;99.90
21588;BME280;10956;48.878;13.316;2023-03-20T11:51:26;94410.63;;;11.98;100.00
21588;BME280;10956;48.878;13.316;2023-03-20T11:53:57;94405.88;;;12.00;100.00
21588;BME280;10956;48.878;13.316;2023-03-20T11:56:26;94402.69;;;12.03;100.00
21588;BME280;10956;48.878;13.316;2023-03-20T12:01:52;94412.34;;;12.38;98.86
21588;BME280;10956;48.878;13.316;2023-03-20T12:04:31;94409.03;;;12.67;97.67
21588;BME280;10956;48.878;13.316;2023-03-20T12:09:50;94409.09;;;13.01;96.98
21588;BME280;10956;48.878;13.316;2023-03-20T12:15:13;94403.50;;;13.07;96.52
21588;BME280;10956;48.878;13.316;2023-03-20T12:18:24;94396.31;;;13.13;96.38
21588;BME280;10956;48.878;13.316;2023-03-20T12:23:36;94393.47;;;13.04;96.68
21588;BME280;10956;48.878;13.316;2023-03-20T12:28:56;94384.00;;;12.93;97.25
21588;BME280;10956;48.878;13.316;2023-03-20T12:31:32;94390.91;;;12.89;97.15
21588;BME280;10956;48.878;13.316;2023-03-20T12:34:13;94381.91;;;12.90;97.13
21588;BME280;10956;48.878;13.316;2023-03-20T12:36:50;94382.31;;;13.07;96.51
21588;BME280;10956;48.878;13.316;2023-03-20T12:39:25;94377.50;;;13.14;95.26
21588;BME280;10956;48.878;13.316;2023-03-20T13:01:51;94374.84;;;13.14;93.14
21588;BME280;10956;48.878;13.316;2023-03-20T13:07:06;94370.63;;;13.13;93.77
21588;BME280;10956;48.878;13.316;2023-03-20T13:10:07;94369.06;;;13.12;94.23
21588;BME280;10956;48.878;13.316;2023-03-20T13:12:42;94360.56;;;13.20;94.01
21588;BME280;10956;48.878;13.316;2023-03-20T13:20:33;94364.59;;;13.08;93.88
21588;BME280;10956;48.878;13.316;2023-03-20T13:25:42;94356.41;;;13.04;95.01
21588;BME280;10956;48.878;13.316;2023-03-20T13:28:16;94355.06;;;13.07;95.09
21588;BME280;10956;48.878;13.316;2023-03-20T13:31:14;94352.09;;;13.18;94.60
21588;BME280;10956;48.878;13.316;2023-03-20T13:36:59;94338.81;;;13.23;93.43
21588;BME280;10956;48.878;13.316;2023-03-20T13:39:30;94344.16;;;13.18;92.94
21588;BME280;10956;48.878;13.316;2023-03-20T13:41:59;94344.69;;;13.20;93.32
21588;BME280;10956;48.878;13.316;2023-03-20T13:44:28;94350.03;;;13.10;93.04
21588;BME280;10956;48.878;13.316;2023-03-20T13:46:56;94351.03;;;13.14;92.83
21588;BME280;10956;48.878;13.316;2023-03-20T13:49:39;94335.22;;;13.09;92.55
21588;BME280;10956;48.878;13.316;2023-03-20T13:52:21;94357.75;;;13.02;91.99
21588;BME280;10956;48.878;13.316;2023-03-20T13:54:58;94357.03;;;12.91;92.35
21588;BME280;10956;48.878;13.316;2023-03-20T14:00:26;94350.19;;;12.90;91.81
21588;BME280;10956;48.878;13.316;2023-03-20T14:05:25;94352.78;;;12.95;91.03
21588;BME280;10956;48.878;13.316;2023-03-20T14:07:55;94361.31;;;12.87;91.36
21588;BME280;10956;48.878;13.316;2023-03-20T14:12:59;94353.28;;;12.58;93.55
21588;BME280;10956;48.878;13.316;2023-03-20T14:15:27;94354.69;;;12.45;94.76
21588;BME280;10956;48.878;13.316;2023-03-20T14:17:56;94360.78;;;12.46;94.87
21588;BME280;10956;48.878;13.316;2023-03-20T14:22:52;94349.97;;;12.37;95.68
21588;BME280;10956;48.878;13.316;2023-03-20T14:25:19;94354.78;;;12.25;96.23
21588;BME280;10956;48.878;13.316;2023-03-20T14:30:44;94353.84;;;12.01;97.54
21588;BME280;10956;48.878;13.316;2023-03-20T14:35:47;94348.03;;;12.04;98.00
21588;BME280;10956;48.878;13.316;2023-03-20T14:41:04;94356.03;;;12.43;96.39
21588;BME280;10956;48.878;13.316;2023-03-20T14:52:29;94340.41;;;12.46;96.41
21588;BME280;10956;48.878;13.316;2023-03-20T14:57:43;94335.72;;;12.33;96.38
21588;BME280;10956;48.878;13.316;2023-03-20T15:00:22;94325.16;;;12.33;96.49
21588;BME280;10956;48.878;13.316;2023-03-20T15:03:08;94323.53;;;12.42;96.26
21588;BME280;10956;48.878;13.316;2023-03-20T15:05:36;94328.19;;;12.55;95.62
21588;BME280;10956;48.878;13.316;2023-03-20T15:08:18;94326.03;;;12.63;95.29
21588;BME280;10956;48.878;13.316;2023-03-20T15:10:50;94327.94;;;12.57;95.39
21588;BME280;10956;48.878;13.316;2023-03-20T15:13:17;94338.53;;;12.52;95.37
21588;BME280;10956;48.878;13.316;2023-03-20T15:16:15;94329.34;;;12.39;95.95
21588;BME280;10956;48.878;13.316;2023-03-20T15:18:46;94324.63;;;12.36;95.57